sensor_id;sensor_type;location;lat;lon;timestamp;P1;durP1;ratioP1;P2;durP2;ratioP2
5133;SDS011;2585;48.696;10.066;2022-08-19T00:01:32;19.37;;;13.77;;
5133;SDS011;2585;48.696;10.066;2022-08-19T00:04:04;16.37;;;14.43;;
5133;SDS011;2585;48.696;10.066;2022-08-19T00:06:34;16.60;;;14.10;;
5133;SDS011;2585;48.696;10.066;2022-08-19T00:09:04;16.47;;;14.70;;
5133;SDS011;2585;48.696;10.066;2022-08-19T00:11:32;17.20;;;14.60;;
5133;SDS011;2585;48.696;10.066;2022-08-19T00:14:07;19.73;;;14.03;;
5133;SDS011;2585;48.696;10.066;2022-08-19T00:16:36;16.27;;;14.10;;
5133;SDS011;2585;48.696;10.066;2022-08-19T00:19:05;17.40;;;14.63;;
5133;SDS011;2585;48.696;10.066;2022-08-19T00:21:32;16.33;;;14.33;;
5133;SDS011;2585;48.696;10.066;2022-08-19T00:24:04;16.77;;;14.97;;
5133;SDS011;2585;48.696;10.066;2022-08-19T00:26:35;20.43;;;14.90;;
5133;SDS011;2585;48.696;10.066;2022-08-19T00:29:03;14.83;;;13.10;;
5133;SDS011;2585;48.696;10.066;2022-08-19T00:31:31;16.30;;;14.60;;
5133;SDS011;2585;48.696;10.066;2022-08-19T00:33:58;18.20;;;14.57;;
5133;SDS011;2585;48.696;10.066;2022-08-19T00:36:25;19.77;;;16.50;;
5133;SDS011;2585;48.696;10.066;2022-08-19T00:38:52;16.97;;;15.17;;
5133;SDS011;2585;48.696;10.066;2022-08-19T00:41:20;16.50;;;14.83;;
5133;SDS011;2585;48.696;10.066;2022-08-19T00:46:41;17.97;;;15.40;;
5133;SDS011;2585;48.696;10.066;2022-08-19T00:51:55;17.67;;;14.97;;
5133;SDS011;2585;48.696;10.066;2022-08-19T00:54:26;19.50;;;17.50;;
5133;SDS011;2585;48.696;10.066;2022-08-19T00:56:56;18.23;;;16.07;;
5133;SDS011;2585;48.696;10.066;2022-08-19T00:59:25;19.47;;;17.10;;
5133;SDS011;2585;48.696;10.066;2022-08-19T01:02:15;20.00;;;16.50;;
5133;SDS011;2585;48.696;10.066;2022-08-19T01:04:42;20.13;;;17.80;;
5133;SDS011;2585;48.696;10.066;2022-08-19T01:07:09;21.13;;;18.30;;
5133;SDS011;2585;48.696;10.066;2022-08-19T01:09:42;25.50;;;18.00;;
5133;SDS011;2585;48.696;10.066;2022-08-19T01:12:09;19.27;;;17.27;;
5133;SDS011;2585;48.696;10.066;2022-08-19T01:14:36;19.77;;;16.90;;
5133;SDS011;2585;48.696;10.066;2022-08-19T01:17:07;19.93;;;17.63;;
5133;SDS011;2585;48.696;10.066;2022-08-19T01:19:38;23.47;;;18.47;;
5133;SDS011;2585;48.696;10.066;2022-08-19T01:24:55;21.53;;;19.03;;
5133;SDS011;2585;48.696;10.066;2022-08-19T01:27:24;28.17;;;20.33;;
5133;SDS011;2585;48.696;10.066;2022-08-19T01:29:54;22.70;;;19.00;;
5133;SDS011;2585;48.696;10.066;2022-08-19T01:32:22;22.57;;;18.20;;
5133;SDS011;2585;48.696;10.066;2022-08-19T01:34:59;24.63;;;19.63;;
5133;SDS011;2585;48.696;10.066;2022-08-19T01:37:28;23.37;;;18.00;;
5133;SDS011;2585;48.696;10.066;2022-08-19T01:39:56;22.00;;;19.60;;
5133;SDS011;2585;48.696;10.066;2022-08-19T01:42:23;28.60;;;20.20;;
5133;SDS011;2585;48.696;10.066;2022-08-19T01:44:55;21.60;;;19.27;;
5133;SDS011;2585;48.696;10.066;2022-08-19T01:47:22;23.40;;;19.63;;
5133;SDS011;2585;48.696;10.066;2022-08-19T01:49:49;26.60;;;21.00;;
5133;SDS011;2585;48.696;10.066;2022-08-19T01:52:16;22.77;;;18.67;;
5133;SDS011;2585;48.696;10.066;2022-08-19T01:54:43;26.83;;;21.47;;
5133;SDS011;2585;48.696;10.066;2022-08-19T01:57:10;25.40;;;20.77;;
5133;SDS011;2585;48.696;10.066;2022-08-19T01:59:40;23.27;;;20.50;;
5133;SDS011;2585;48.696;10.066;2022-08-19T02:02:08;25.37;;;20.93;;
5133;SDS011;2585;48.696;10.066;2022-08-19T02:04:35;26.13;;;21.73;;
5133;SDS011;2585;48.696;10.066;2022-08-19T02:07:06;24.87;;;20.83;;
5133;SDS011;2585;48.696;10.066;2022-08-19T02:09:34;23.93;;;20.00;;
5133;SDS011;2585;48.696;10.066;2022-08-19T02:12:01;23.53;;;20.40;;
5133;SDS011;2585;48.696;10.066;2022-08-19T02:14:29;27.80;;;21.43;;
5133;SDS011;2585;48.696;10.066;2022-08-19T02:16:55;25.57;;;20.60;;
5133;SDS011;2585;48.696;10.066;2022-08-19T02:19:22;27.07;;;22.63;;
5133;SDS011;2585;48.696;10.066;2022-08-19T02:21:49;22.10;;;19.60;;
5133;SDS011;2585;48.696;10.066;2022-08-19T02:24:16;26.20;;;21.77;;
5133;SDS011;2585;48.696;10.066;2022-08-19T02:26:43;24.37;;;20.60;;
5133;SDS011;2585;48.696;10.066;2022-08-19T02:29:09;24.33;;;21.73;;
5133;SDS011;2585;48.696;10.066;2022-08-19T02:31:36;29.13;;;21.33;;
5133;SDS011;2585;48.696;10.066;2022-08-19T02:34:03;24.20;;;20.90;;
5133;SDS011;2585;48.696;10.066;2022-08-19T02:36:30;26.17;;;22.10;;
5133;SDS011;2585;48.696;10.066;2022-08-19T02:38:57;22.60;;;19.10;;
5133;SDS011;2585;48.696;10.066;2022-08-19T02:41:25;26.10;;;23.33;;
5133;SDS011;2585;48.696;10.066;2022-08-19T02:43:59;24.43;;;21.80;;
5133;SDS011;2585;48.696;10.066;2022-08-19T02:46:47;25.20;;;20.60;;
5133;SDS011;2585;48.696;10.066;2022-08-19T02:49:17;26.40;;;21.30;;
5133;SDS011;2585;48.696;10.066;2022-08-19T02:51:45;28.30;;;21.70;;
5133;SDS011;2585;48.696;10.066;2022-08-19T02:54:12;29.93;;;22.97;;
5133;SDS011;2585;48.696;10.066;2022-08-19T02:56:41;26.30;;;21.93;;
5133;SDS011;2585;48.696;10.066;2022-08-19T02:59:09;25.90;;;21.13;;
5133;SDS011;2585;48.696;10.066;2022-08-19T03:01:39;24.93;;;21.30;;
5133;SDS011;2585;48.696;10.066;2022-08-19T03:04:08;23.13;;;19.70;;
5133;SDS011;2585;48.696;10.066;2022-08-19T03:06:41;29.00;;;22.30;;
5133;SDS011;2585;48.696;10.066;2022-08-19T03:09:11;29.07;;;24.10;;
5133;SDS011;2585;48.696;10.066;2022-08-19T03:11:38;28.90;;;22.80;;
5133;SDS011;2585;48.696;10.066;2022-08-19T03:14:06;26.77;;;22.03;;
5133;SDS011;2585;48.696;10.066;2022-08-19T03:16:40;30.77;;;22.63;;
5133;SDS011;2585;48.696;10.066;2022-08-19T03:19:10;29.03;;;23.40;;
5133;SDS011;2585;48.696;10.066;2022-08-19T03:21:37;32.07;;;23.90;;
5133;SDS011;2585;48.696;10.066;2022-08-19T03:24:06;28.63;;;22.67;;
5133;SDS011;2585;48.696;10.066;2022-08-19T03:26:38;27.00;;;22.73;;
5133;SDS011;2585;48.696;10.066;2022-08-19T03:29:06;26.47;;;22.53;;
5133;SDS011;2585;48.696;10.066;2022-08-19T03:31:36;30.30;;;23.83;;
5133;SDS011;2585;48.696;10.066;2022-08-19T03:34:19;27.63;;;22.77;;
5133;SDS011;2585;48.696;10.066;2022-08-19T03:36:54;38.27;;;23.30;;
5133;SDS011;2585;48.696;10.066;2022-08-19T03:39:23;29.10;;;23.60;;
5133;SDS011;2585;48.696;10.066;2022-08-19T03:41:51;26.90;;;22.57;;
5133;SDS011;2585;48.696;10.066;2022-08-19T03:44:39;30.07;;;22.33;;
5133;SDS011;2585;48.696;10.066;2022-08-19T03:47:08;27.63;;;24.00;;
5133;SDS011;2585;48.696;10.066;2022-08-19T03:49:35;29.63;;;24.20;;
5133;SDS011;2585;48.696;10.066;2022-08-19T03:52:02;28.10;;;23.83;;
5133;SDS011;2585;48.696;10.066;2022-08-19T03:54:31;34.47;;;26.10;;
5133;SDS011;2585;48.696;10.066;2022-08-19T03:57:00;29.27;;;22.53;;
5133;SDS011;2585;48.696;10.066;2022-08-19T03:59:28;31.17;;;23.47;;
5133;SDS011;2585;48.696;10.066;2022-08-19T04:01:58;26.60;;;22.50;;
5133;SDS011;2585;48.696;10.066;2022-08-19T04:04:27;29.67;;;23.27;;
5133;SDS011;2585;48.696;10.066;2022-08-19T04:06:55;25.70;;;22.13;;
5133;SDS011;2585;48.696;10.066;2022-08-19T04:09:22;29.83;;;23.77;;
5133;SDS011;2585;48.696;10.066;2022-08-19T04:11:51;31.37;;;24.70;;
5133;SDS011;2585;48.696;10.066;2022-08-19T04:14:23;30.90;;;24.10;;
5133;SDS011;2585;48.696;10.066;2022-08-19T04:16:51;30.13;;;24.17;;
5133;SDS011;2585;48.696;10.066;2022-08-19T04:19:19;29.83;;;23.93;;
5133;SDS011;2585;48.696;10.066;2022-08-19T04:21:47;30.67;;;23.93;;
5133;SDS011;2585;48.696;10.066;2022-08-19T04:24:15;32.50;;;24.00;;
5133;SDS011;2585;48.696;10.066;2022-08-19T04:26:45;34.83;;;26.30;;
5133;SDS011;2585;48.696;10.066;2022-08-19T04:29:20;35.43;;;24.17;;
5133;SDS011;2585;48.696;10.066;2022-08-19T04:31:51;30.43;;;24.20;;
5133;SDS011;2585;48.696;10.066;2022-08-19T04:34:20;35.60;;;25.60;;
5133;SDS011;2585;48.696;10.066;2022-08-19T04:36:49;30.70;;;23.90;;
5133;SDS011;2585;48.696;10.066;2022-08-19T04:39:20;34.23;;;25.30;;
5133;SDS011;2585;48.696;10.066;2022-08-19T04:41:49;35.70;;;26.60;;
5133;SDS011;2585;48.696;10.066;2022-08-19T04:44:35;33.80;;;25.43;;
5133;SDS011;2585;48.696;10.066;2022-08-19T04:47:11;36.63;;;26.07;;
5133;SDS011;2585;48.696;10.066;2022-08-19T04:49:38;37.20;;;26.83;;
5133;SDS011;2585;48.696;10.066;2022-08-19T04:52:05;35.20;;;26.23;;
5133;SDS011;2585;48.696;10.066;2022-08-19T04:54:32;30.93;;;25.00;;
5133;SDS011;2585;48.696;10.066;2022-08-19T04:57:05;41.27;;;26.87;;
5133;SDS011;2585;48.696;10.066;2022-08-19T04:59:35;31.20;;;25.20;;
5133;SDS011;2585;48.696;10.066;2022-08-19T05:02:03;32.90;;;26.17;;
5133;SDS011;2585;48.696;10.066;2022-08-19T05:04:30;32.30;;;24.00;;
5133;SDS011;2585;48.696;10.066;2022-08-19T05:06:58;34.40;;;24.97;;
5133;SDS011;2585;48.696;10.066;2022-08-19T05:09:28;36.90;;;27.30;;
5133;SDS011;2585;48.696;10.066;2022-08-19T05:12:16;32.80;;;25.77;;
5133;SDS011;2585;48.696;10.066;2022-08-19T05:14:44;40.13;;;28.67;;
5133;SDS011;2585;48.696;10.066;2022-08-19T05:17:14;45.53;;;30.00;;
5133;SDS011;2585;48.696;10.066;2022-08-19T05:20:02;39.93;;;27.90;;
5133;SDS011;2585;48.696;10.066;2022-08-19T05:22:49;35.67;;;26.00;;
5133;SDS011;2585;48.696;10.066;2022-08-19T05:25:17;38.17;;;27.10;;
5133;SDS011;2585;48.696;10.066;2022-08-19T05:27:45;38.30;;;26.83;;
5133;SDS011;2585;48.696;10.066;2022-08-19T05:30:13;39.30;;;27.93;;
5133;SDS011;2585;48.696;10.066;2022-08-19T05:32:41;33.73;;;26.70;;
5133;SDS011;2585;48.696;10.066;2022-08-19T05:35:08;38.00;;;26.50;;
5133;SDS011;2585;48.696;10.066;2022-08-19T05:37:36;35.67;;;25.00;;
5133;SDS011;2585;48.696;10.066;2022-08-19T05:40:06;37.93;;;26.27;;
5133;SDS011;2585;48.696;10.066;2022-08-19T05:42:35;37.47;;;25.90;;
5133;SDS011;2585;48.696;10.066;2022-08-19T05:45:02;33.97;;;24.50;;
5133;SDS011;2585;48.696;10.066;2022-08-19T05:47:29;38.70;;;25.70;;
5133;SDS011;2585;48.696;10.066;2022-08-19T05:49:56;35.63;;;25.30;;
5133;SDS011;2585;48.696;10.066;2022-08-19T05:52:23;39.13;;;26.63;;
5133;SDS011;2585;48.696;10.066;2022-08-19T05:54:51;36.17;;;27.00;;
5133;SDS011;2585;48.696;10.066;2022-08-19T05:57:21;34.00;;;25.00;;
5133;SDS011;2585;48.696;10.066;2022-08-19T05:59:49;40.30;;;26.60;;
5133;SDS011;2585;48.696;10.066;2022-08-19T06:02:24;34.80;;;25.63;;
5133;SDS011;2585;48.696;10.066;2022-08-19T06:04:52;38.67;;;26.30;;
5133;SDS011;2585;48.696;10.066;2022-08-19T06:07:19;32.67;;;25.03;;
5133;SDS011;2585;48.696;10.066;2022-08-19T06:09:46;35.77;;;26.70;;
5133;SDS011;2585;48.696;10.066;2022-08-19T06:12:25;38.80;;;27.07;;
5133;SDS011;2585;48.696;10.066;2022-08-19T06:14:59;35.10;;;26.23;;
5133;SDS011;2585;48.696;10.066;2022-08-19T06:17:28;38.40;;;26.43;;
5133;SDS011;2585;48.696;10.066;2022-08-19T06:19:57;37.07;;;26.37;;
5133;SDS011;2585;48.696;10.066;2022-08-19T06:22:25;40.50;;;27.17;;
5133;SDS011;2585;48.696;10.066;2022-08-19T06:24:52;34.97;;;26.53;;
5133;SDS011;2585;48.696;10.066;2022-08-19T06:27:20;41.23;;;26.17;;
5133;SDS011;2585;48.696;10.066;2022-08-19T06:29:48;37.47;;;27.20;;
5133;SDS011;2585;48.696;10.066;2022-08-19T06:32:15;33.87;;;25.10;;
5133;SDS011;2585;48.696;10.066;2022-08-19T06:34:43;34.60;;;25.93;;
5133;SDS011;2585;48.696;10.066;2022-08-19T06:37:10;35.57;;;25.80;;
5133;SDS011;2585;48.696;10.066;2022-08-19T06:39:38;40.50;;;27.50;;
5133;SDS011;2585;48.696;10.066;2022-08-19T06:42:07;35.80;;;26.60;;
5133;SDS011;2585;48.696;10.066;2022-08-19T06:44:38;40.77;;;26.00;;
5133;SDS011;2585;48.696;10.066;2022-08-19T06:47:10;36.03;;;26.83;;
5133;SDS011;2585;48.696;10.066;2022-08-19T06:49:55;42.80;;;28.17;;
5133;SDS011;2585;48.696;10.066;2022-08-19T06:52:31;34.37;;;25.47;;
5133;SDS011;2585;48.696;10.066;2022-08-19T06:55:02;38.07;;;26.73;;
5133;SDS011;2585;48.696;10.066;2022-08-19T06:57:31;43.43;;;28.77;;
5133;SDS011;2585;48.696;10.066;2022-08-19T06:59:59;41.80;;;28.20;;
5133;SDS011;2585;48.696;10.066;2022-08-19T07:02:26;35.60;;;26.47;;
5133;SDS011;2585;48.696;10.066;2022-08-19T07:04:53;41.50;;;28.17;;
5133;SDS011;2585;48.696;10.066;2022-08-19T07:07:20;37.20;;;27.20;;
5133;SDS011;2585;48.696;10.066;2022-08-19T07:09:49;38.30;;;28.40;;
5133;SDS011;2585;48.696;10.066;2022-08-19T07:12:28;38.70;;;28.00;;
5133;SDS011;2585;48.696;10.066;2022-08-19T07:15:01;43.80;;;29.70;;
5133;SDS011;2585;48.696;10.066;2022-08-19T07:17:30;41.67;;;28.30;;
5133;SDS011;2585;48.696;10.066;2022-08-19T07:19:59;40.53;;;28.97;;
5133;SDS011;2585;48.696;10.066;2022-08-19T07:22:32;46.57;;;28.80;;
5133;SDS011;2585;48.696;10.066;2022-08-19T07:25:00;39.33;;;27.70;;
5133;SDS011;2585;48.696;10.066;2022-08-19T07:27:29;40.27;;;28.73;;
5133;SDS011;2585;48.696;10.066;2022-08-19T07:29:59;38.93;;;28.57;;
5133;SDS011;2585;48.696;10.066;2022-08-19T07:32:26;35.50;;;26.60;;
5133;SDS011;2585;48.696;10.066;2022-08-19T07:34:53;42.47;;;29.03;;
5133;SDS011;2585;48.696;10.066;2022-08-19T07:37:22;38.27;;;26.20;;
5133;SDS011;2585;48.696;10.066;2022-08-19T07:39:58;43.83;;;30.83;;
5133;SDS011;2585;48.696;10.066;2022-08-19T07:42:25;41.50;;;27.70;;
5133;SDS011;2585;48.696;10.066;2022-08-19T07:44:52;38.97;;;27.27;;
5133;SDS011;2585;48.696;10.066;2022-08-19T07:47:19;38.60;;;27.03;;
5133;SDS011;2585;48.696;10.066;2022-08-19T07:50:08;36.33;;;28.33;;
5133;SDS011;2585;48.696;10.066;2022-08-19T07:52:37;39.87;;;28.30;;
5133;SDS011;2585;48.696;10.066;2022-08-19T07:55:06;43.30;;;31.00;;
5133;SDS011;2585;48.696;10.066;2022-08-19T07:57:55;41.20;;;28.90;;
5133;SDS011;2585;48.696;10.066;2022-08-19T08:00:21;44.37;;;28.30;;
5133;SDS011;2585;48.696;10.066;2022-08-19T08:02:50;38.73;;;29.03;;
5133;SDS011;2585;48.696;10.066;2022-08-19T08:05:21;46.40;;;30.03;;
5133;SDS011;2585;48.696;10.066;2022-08-19T08:08:09;40.87;;;30.47;;
5133;SDS011;2585;48.696;10.066;2022-08-19T08:10:55;39.57;;;30.00;;
5133;SDS011;2585;48.696;10.066;2022-08-19T08:13:23;44.10;;;28.90;;
5133;SDS011;2585;48.696;10.066;2022-08-19T08:15:51;46.70;;;31.40;;
5133;SDS011;2585;48.696;10.066;2022-08-19T08:18:21;45.10;;;31.20;;
5133;SDS011;2585;48.696;10.066;2022-08-19T08:20:55;45.87;;;30.90;;
5133;SDS011;2585;48.696;10.066;2022-08-19T08:23:23;40.93;;;29.50;;
5133;SDS011;2585;48.696;10.066;2022-08-19T08:25:55;47.80;;;29.40;;
5133;SDS011;2585;48.696;10.066;2022-08-19T08:28:24;39.53;;;28.10;;
5133;SDS011;2585;48.696;10.066;2022-08-19T08:30:55;39.30;;;28.67;;
5133;SDS011;2585;48.696;10.066;2022-08-19T08:33:24;40.67;;;29.23;;
5133;SDS011;2585;48.696;10.066;2022-08-19T08:35:59;43.13;;;30.80;;
5133;SDS011;2585;48.696;10.066;2022-08-19T08:38:32;44.03;;;30.70;;
5133;SDS011;2585;48.696;10.066;2022-08-19T08:41:28;39.20;;;29.33;;
5133;SDS011;2585;48.696;10.066;2022-08-19T08:43:57;40.70;;;29.10;;
5133;SDS011;2585;48.696;10.066;2022-08-19T08:46:26;43.10;;;30.00;;
5133;SDS011;2585;48.696;10.066;2022-08-19T08:54:17;41.07;;;29.73;;
5133;SDS011;2585;48.696;10.066;2022-08-19T08:56:46;40.37;;;28.87;;
5133;SDS011;2585;48.696;10.066;2022-08-19T08:59:35;41.83;;;29.30;;
5133;SDS011;2585;48.696;10.066;2022-08-19T09:02:05;43.17;;;30.40;;
5133;SDS011;2585;48.696;10.066;2022-08-19T09:04:33;41.13;;;29.10;;
5133;SDS011;2585;48.696;10.066;2022-08-19T09:10:08;42.20;;;30.03;;
5133;SDS011;2585;48.696;10.066;2022-08-19T09:13:32;40.43;;;29.33;;
5133;SDS011;2585;48.696;10.066;2022-08-19T09:16:08;40.83;;;29.37;;
5133;SDS011;2585;48.696;10.066;2022-08-19T09:18:42;37.97;;;28.83;;
5133;SDS011;2585;48.696;10.066;2022-08-19T09:21:21;43.30;;;30.50;;
5133;SDS011;2585;48.696;10.066;2022-08-19T09:23:58;41.40;;;31.00;;
5133;SDS011;2585;48.696;10.066;2022-08-19T09:26:28;44.87;;;30.83;;
5133;SDS011;2585;48.696;10.066;2022-08-19T09:29:13;44.50;;;31.20;;
5133;SDS011;2585;48.696;10.066;2022-08-19T09:31:42;47.90;;;32.00;;
5133;SDS011;2585;48.696;10.066;2022-08-19T09:34:09;44.37;;;31.23;;
5133;SDS011;2585;48.696;10.066;2022-08-19T09:36:46;41.10;;;29.77;;
5133;SDS011;2585;48.696;10.066;2022-08-19T09:39:20;42.83;;;30.30;;
5133;SDS011;2585;48.696;10.066;2022-08-19T09:41:47;43.80;;;29.80;;
5133;SDS011;2585;48.696;10.066;2022-08-19T09:44:16;41.47;;;29.43;;
5133;SDS011;2585;48.696;10.066;2022-08-19T09:46:44;40.40;;;28.20;;
5133;SDS011;2585;48.696;10.066;2022-08-19T09:49:13;47.07;;;30.67;;
5133;SDS011;2585;48.696;10.066;2022-08-19T09:51:43;42.93;;;30.67;;
5133;SDS011;2585;48.696;10.066;2022-08-19T09:54:16;45.07;;;30.27;;
5133;SDS011;2585;48.696;10.066;2022-08-19T09:56:50;45.10;;;32.23;;
5133;SDS011;2585;48.696;10.066;2022-08-19T09:59:18;38.07;;;28.10;;
5133;SDS011;2585;48.696;10.066;2022-08-19T10:01:45;47.60;;;30.80;;
5133;SDS011;2585;48.696;10.066;2022-08-19T10:04:12;50.00;;;33.47;;
5133;SDS011;2585;48.696;10.066;2022-08-19T10:06:45;47.83;;;33.70;;
5133;SDS011;2585;48.696;10.066;2022-08-19T10:09:18;45.53;;;32.03;;
5133;SDS011;2585;48.696;10.066;2022-08-19T10:11:59;41.03;;;31.13;;
5133;SDS011;2585;48.696;10.066;2022-08-19T10:14:27;39.80;;;29.17;;
5133;SDS011;2585;48.696;10.066;2022-08-19T10:16:54;44.47;;;30.27;;
5133;SDS011;2585;48.696;10.066;2022-08-19T10:19:24;41.30;;;31.50;;
5133;SDS011;2585;48.696;10.066;2022-08-19T10:21:52;45.40;;;31.77;;
5133;SDS011;2585;48.696;10.066;2022-08-19T10:24:25;45.13;;;32.17;;
5133;SDS011;2585;48.696;10.066;2022-08-19T10:26:54;40.30;;;28.97;;
5133;SDS011;2585;48.696;10.066;2022-08-19T10:29:25;41.60;;;30.77;;
5133;SDS011;2585;48.696;10.066;2022-08-19T10:31:58;39.07;;;29.23;;
5133;SDS011;2585;48.696;10.066;2022-08-19T10:34:28;48.77;;;32.97;;
5133;SDS011;2585;48.696;10.066;2022-08-19T10:36:56;43.33;;;30.43;;
5133;SDS011;2585;48.696;10.066;2022-08-19T10:39:27;41.43;;;31.57;;
5133;SDS011;2585;48.696;10.066;2022-08-19T10:42:05;40.17;;;31.20;;
5133;SDS011;2585;48.696;10.066;2022-08-19T10:44:33;50.17;;;30.60;;
5133;SDS011;2585;48.696;10.066;2022-08-19T10:47:01;41.40;;;29.50;;
5133;SDS011;2585;48.696;10.066;2022-08-19T10:49:43;43.80;;;30.67;;
5133;SDS011;2585;48.696;10.066;2022-08-19T10:52:28;43.00;;;30.03;;
5133;SDS011;2585;48.696;10.066;2022-08-19T10:55:04;41.83;;;32.47;;
5133;SDS011;2585;48.696;10.066;2022-08-19T10:57:58;45.43;;;33.20;;
5133;SDS011;2585;48.696;10.066;2022-08-19T11:00:28;46.30;;;32.37;;
5133;SDS011;2585;48.696;10.066;2022-08-19T11:02:56;44.03;;;32.20;;
5133;SDS011;2585;48.696;10.066;2022-08-19T11:05:23;48.40;;;32.00;;
5133;SDS011;2585;48.696;10.066;2022-08-19T11:07:50;41.67;;;30.83;;
5133;SDS011;2585;48.696;10.066;2022-08-19T11:10:18;45.83;;;31.13;;
5133;SDS011;2585;48.696;10.066;2022-08-19T11:12:47;43.40;;;31.03;;
5133;SDS011;2585;48.696;10.066;2022-08-19T11:15:14;43.03;;;31.17;;
5133;SDS011;2585;48.696;10.066;2022-08-19T11:17:42;40.47;;;30.80;;
5133;SDS011;2585;48.696;10.066;2022-08-19T11:20:10;39.80;;;30.23;;
5133;SDS011;2585;48.696;10.066;2022-08-19T11:22:39;42.63;;;31.17;;
5133;SDS011;2585;48.696;10.066;2022-08-19T11:25:08;40.83;;;30.23;;
5133;SDS011;2585;48.696;10.066;2022-08-19T11:27:37;38.27;;;28.47;;
5133;SDS011;2585;48.696;10.066;2022-08-19T11:30:06;40.40;;;29.73;;
5133;SDS011;2585;48.696;10.066;2022-08-19T11:32:38;39.73;;;28.73;;
5133;SDS011;2585;48.696;10.066;2022-08-19T11:35:12;40.53;;;29.20;;
5133;SDS011;2585;48.696;10.066;2022-08-19T11:37:39;43.63;;;29.87;;
5133;SDS011;2585;48.696;10.066;2022-08-19T11:40:07;36.50;;;28.10;;
5133;SDS011;2585;48.696;10.066;2022-08-19T11:42:34;35.30;;;27.37;;
5133;SDS011;2585;48.696;10.066;2022-08-19T11:45:20;38.40;;;29.10;;
5133;SDS011;2585;48.696;10.066;2022-08-19T11:47:47;39.17;;;26.03;;
5133;SDS011;2585;48.696;10.066;2022-08-19T11:50:15;39.40;;;27.30;;
5133;SDS011;2585;48.696;10.066;2022-08-19T11:52:42;35.00;;;26.23;;
5133;SDS011;2585;48.696;10.066;2022-08-19T11:55:11;31.47;;;23.30;;
5133;SDS011;2585;48.696;10.066;2022-08-19T11:57:40;26.47;;;20.70;;
5133;SDS011;2585;48.696;10.066;2022-08-19T12:00:09;28.40;;;20.20;;
5133;SDS011;2585;48.696;10.066;2022-08-19T12:02:38;29.03;;;21.67;;
5133;SDS011;2585;48.696;10.066;2022-08-19T12:05:06;27.63;;;21.37;;
5133;SDS011;2585;48.696;10.066;2022-08-19T12:07:38;25.27;;;19.23;;
5133;SDS011;2585;48.696;10.066;2022-08-19T12:10:06;28.10;;;19.60;;
5133;SDS011;2585;48.696;10.066;2022-08-19T12:12:33;18.10;;;15.70;;
5133;SDS011;2585;48.696;10.066;2022-08-19T12:15:00;20.67;;;14.20;;
5133;SDS011;2585;48.696;10.066;2022-08-19T12:17:28;15.30;;;12.50;;
5133;SDS011;2585;48.696;10.066;2022-08-19T12:19:57;16.67;;;12.67;;
5133;SDS011;2585;48.696;10.066;2022-08-19T12:22:23;11.40;;;9.63;;
5133;SDS011;2585;48.696;10.066;2022-08-19T12:24:50;13.33;;;10.00;;
5133;SDS011;2585;48.696;10.066;2022-08-19T12:27:19;11.87;;;8.90;;
5133;SDS011;2585;48.696;10.066;2022-08-19T12:30:07;11.40;;;9.23;;
5133;SDS011;2585;48.696;10.066;2022-08-19T12:32:36;13.43;;;10.57;;
5133;SDS011;2585;48.696;10.066;2022-08-19T12:35:03;15.17;;;13.00;;
5133;SDS011;2585;48.696;10.066;2022-08-19T12:37:31;14.13;;;11.70;;
5133;SDS011;2585;48.696;10.066;2022-08-19T12:39:58;18.63;;;14.80;;
5133;SDS011;2585;48.696;10.066;2022-08-19T12:42:25;18.03;;;14.47;;
5133;SDS011;2585;48.696;10.066;2022-08-19T12:44:52;18.93;;;16.43;;
5133;SDS011;2585;48.696;10.066;2022-08-19T12:47:19;20.53;;;16.93;;
5133;SDS011;2585;48.696;10.066;2022-08-19T12:49:47;18.47;;;15.47;;
5133;SDS011;2585;48.696;10.066;2022-08-19T12:52:21;17.63;;;15.20;;
5133;SDS011;2585;48.696;10.066;2022-08-19T12:54:50;16.27;;;13.87;;
5133;SDS011;2585;48.696;10.066;2022-08-19T12:57:20;20.40;;;16.30;;
5133;SDS011;2585;48.696;10.066;2022-08-19T12:59:57;18.63;;;15.43;;
5133;SDS011;2585;48.696;10.066;2022-08-19T13:02:24;14.70;;;12.00;;
5133;SDS011;2585;48.696;10.066;2022-08-19T13:04:51;13.83;;;10.80;;
5133;SDS011;2585;48.696;10.066;2022-08-19T13:07:18;11.80;;;10.27;;
5133;SDS011;2585;48.696;10.066;2022-08-19T13:09:45;10.80;;;8.77;;
5133;SDS011;2585;48.696;10.066;2022-08-19T13:12:12;8.27;;;7.40;;
5133;SDS011;2585;48.696;10.066;2022-08-19T13:14:39;6.90;;;6.20;;
5133;SDS011;2585;48.696;10.066;2022-08-19T13:17:07;7.43;;;4.93;;
5133;SDS011;2585;48.696;10.066;2022-08-19T13:19:36;5.03;;;4.43;;
5133;SDS011;2585;48.696;10.066;2022-08-19T13:22:03;5.57;;;5.03;;
5133;SDS011;2585;48.696;10.066;2022-08-19T13:24:40;10.67;;;5.63;;
5133;SDS011;2585;48.696;10.066;2022-08-19T13:27:12;5.40;;;4.60;;
5133;SDS011;2585;48.696;10.066;2022-08-19T13:29:39;5.33;;;4.83;;
5133;SDS011;2585;48.696;10.066;2022-08-19T13:32:25;8.60;;;4.83;;
5133;SDS011;2585;48.696;10.066;2022-08-19T13:35:11;7.20;;;5.87;;
5133;SDS011;2585;48.696;10.066;2022-08-19T13:37:42;6.30;;;5.70;;
5133;SDS011;2585;48.696;10.066;2022-08-19T13:40:17;7.67;;;5.43;;
5133;SDS011;2585;48.696;10.066;2022-08-19T13:42:46;9.70;;;5.57;;
5133;SDS011;2585;48.696;10.066;2022-08-19T13:45:15;9.20;;;6.70;;
5133;SDS011;2585;48.696;10.066;2022-08-19T13:47:46;8.33;;;7.53;;
5133;SDS011;2585;48.696;10.066;2022-08-19T13:50:19;8.93;;;7.20;;
5133;SDS011;2585;48.696;10.066;2022-08-19T13:52:47;9.53;;;8.50;;
5133;SDS011;2585;48.696;10.066;2022-08-19T13:55:14;11.50;;;9.37;;
5133;SDS011;2585;48.696;10.066;2022-08-19T13:57:53;12.43;;;10.07;;
5133;SDS011;2585;48.696;10.066;2022-08-19T14:00:24;14.40;;;11.67;;
5133;SDS011;2585;48.696;10.066;2022-08-19T14:02:53;15.80;;;11.50;;
5133;SDS011;2585;48.696;10.066;2022-08-19T14:05:23;10.73;;;9.47;;
5133;SDS011;2585;48.696;10.066;2022-08-19T14:07:52;11.03;;;9.90;;
5133;SDS011;2585;48.696;10.066;2022-08-19T14:10:19;13.80;;;10.83;;
5133;SDS011;2585;48.696;10.066;2022-08-19T14:12:47;13.67;;;11.00;;
5133;SDS011;2585;48.696;10.066;2022-08-19T14:15:14;14.30;;;10.20;;
5133;SDS011;2585;48.696;10.066;2022-08-19T14:17:42;16.17;;;11.23;;
5133;SDS011;2585;48.696;10.066;2022-08-19T14:20:11;17.50;;;12.20;;
5133;SDS011;2585;48.696;10.066;2022-08-19T14:22:44;16.10;;;12.90;;
5133;SDS011;2585;48.696;10.066;2022-08-19T14:25:13;13.53;;;11.47;;
5133;SDS011;2585;48.696;10.066;2022-08-19T14:27:42;14.80;;;13.20;;
5133;SDS011;2585;48.696;10.066;2022-08-19T14:30:10;17.90;;;12.83;;
5133;SDS011;2585;48.696;10.066;2022-08-19T14:32:38;15.20;;;11.17;;
5133;SDS011;2585;48.696;10.066;2022-08-19T14:35:05;19.73;;;12.93;;
5133;SDS011;2585;48.696;10.066;2022-08-19T14:37:33;12.80;;;11.50;;
5133;SDS011;2585;48.696;10.066;2022-08-19T14:40:11;14.80;;;12.47;;
5133;SDS011;2585;48.696;10.066;2022-08-19T14:42:39;14.60;;;12.47;;
5133;SDS011;2585;48.696;10.066;2022-08-19T14:45:07;18.70;;;12.07;;
5133;SDS011;2585;48.696;10.066;2022-08-19T14:47:34;13.30;;;11.90;;
5133;SDS011;2585;48.696;10.066;2022-08-19T14:50:06;17.77;;;12.50;;
5133;SDS011;2585;48.696;10.066;2022-08-19T14:52:43;16.03;;;12.17;;
5133;SDS011;2585;48.696;10.066;2022-08-19T14:55:11;15.73;;;12.60;;
5133;SDS011;2585;48.696;10.066;2022-08-19T14:57:38;19.23;;;13.20;;
5133;SDS011;2585;48.696;10.066;2022-08-19T15:00:07;13.60;;;11.47;;
5133;SDS011;2585;48.696;10.066;2022-08-19T15:02:39;14.40;;;11.67;;
5133;SDS011;2585;48.696;10.066;2022-08-19T15:05:07;15.13;;;11.57;;
5133;SDS011;2585;48.696;10.066;2022-08-19T15:07:34;13.63;;;12.23;;
5133;SDS011;2585;48.696;10.066;2022-08-19T15:10:01;16.13;;;12.40;;
5133;SDS011;2585;48.696;10.066;2022-08-19T15:12:28;13.30;;;11.83;;